createdAt,value
2022-09-05T00:06:53.911Z,7.50
2022-09-05T00:18:00.231Z,8.30
2022-09-05T00:29:02.188Z,8.60
2022-09-05T00:40:05.559Z,7.90
2022-09-05T00:51:29.199Z,6.70
2022-09-05T01:02:30.993Z,7.00
2022-09-05T01:13:37.507Z,7.10
2022-09-05T01:24:36.556Z,8.70
2022-09-05T01:36:04.327Z,7.90
2022-09-05T01:47:00.731Z,7.70
2022-09-05T01:57:55.821Z,7.40
2022-09-05T02:08:57.614Z,7.60
2022-09-05T02:19:48.928Z,7.30
2022-09-05T02:30:47.408Z,6.80
2022-09-05T02:45:19.430Z,6.40
2022-09-05T02:57:25.779Z,6.50
2022-09-05T03:04:26.095Z,6.00
2022-09-05T03:15:48.759Z,7.20
2022-09-05T03:27:02.811Z,6.20
2022-09-05T03:38:10.691Z,6.30
2022-09-05T03:51:11.946Z,5.90
2022-09-05T04:00:34.006Z,6.90
2022-09-05T04:11:29.783Z,6.70
2022-09-05T04:22:24.899Z,6.50
2022-09-05T04:33:22.208Z,6.80
2022-09-05T04:44:28.157Z,6.70
2022-09-05T04:55:17.455Z,8.10
2022-09-05T05:06:35.128Z,8.30
2022-09-05T05:18:15.330Z,9.10
2022-09-05T05:28:53.949Z,7.50
2022-09-05T05:39:46.352Z,8.60
2022-09-05T05:50:45.093Z,8.20
2022-09-05T06:02:17.126Z,8.20
2022-09-05T06:15:06.395Z,8.40
2022-09-05T06:25:41.233Z,7.80
2022-09-05T06:36:44.310Z,7.90
2022-09-05T06:47:34.399Z,10.40
2022-09-05T06:59:05.581Z,10.20
2022-09-05T07:10:21.957Z,9.30
2022-09-05T07:21:26.732Z,9.00
2022-09-05T07:32:24.210Z,8.20
2022-09-05T07:43:18.870Z,6.40
2022-09-05T07:56:50.174Z,6.10
2022-09-05T08:05:26.027Z,5.30
2022-09-05T08:16:26.138Z,5.10
2022-09-05T08:27:17.636Z,5.30
2022-09-05T08:38:04.850Z,6.00
2022-09-05T08:49:36.915Z,5.90
2022-09-05T09:00:27.613Z,5.80
2022-09-05T09:11:30.348Z,6.10
2022-09-05T09:22:27.239Z,6.50
2022-09-05T09:33:21.477Z,5.70
2022-09-05T09:44:58.469Z,5.60
2022-09-05T09:56:21.694Z,5.90
2022-09-05T10:11:09.344Z,5.00
2022-09-05T10:18:56.649Z,4.40
2022-09-05T10:29:50.531Z,7.00
2022-09-05T10:41:19.817Z,5.60
2022-09-05T10:51:52.152Z,5.00
2022-09-05T11:02:46.743Z,5.00
2022-09-05T11:13:47.887Z,4.70
2022-09-05T11:24:39.004Z,3.60
2022-09-05T11:39:53.633Z,4.50
2022-09-05T11:46:43.672Z,4.30
2022-09-05T11:57:46.760Z,4.50
2022-09-05T12:08:41.304Z,3.70
2022-09-05T12:19:38.609Z,3.50
2022-09-05T12:30:42.436Z,3.80
2022-09-05T12:42:14.949Z,4.10
2022-09-05T12:53:02.618Z,3.30
2022-09-05T13:04:16.650Z,4.20
2022-09-05T13:15:19.996Z,2.90
2022-09-05T13:26:14.521Z,3.40
2022-09-05T13:38:06.613Z,3.00
2022-09-05T13:49:23.614Z,2.90
2022-09-05T14:11:02.619Z,3.10
2022-09-05T14:21:51.614Z,3.10
2022-09-05T14:37:41.282Z,2.80
2022-09-05T14:44:18.319Z,3.60
2022-09-05T15:05:50.539Z,3.10
2022-09-05T15:16:21.960Z,2.90
2022-09-05T15:26:56.362Z,2.80
2022-09-05T19:08:35.768Z,5.80
2022-09-05T19:19:16.270Z,5.50
2022-09-05T19:37:09.976Z,6.30
2022-09-05T19:47:17.946Z,5.00
2022-09-05T19:51:26.737Z,6.50
2022-09-05T20:01:53.395Z,6.00
2022-09-05T20:12:24.099Z,7.00
2022-09-05T20:22:51.352Z,6.00
2022-09-05T20:33:21.051Z,6.80
2022-09-05T20:43:53.065Z,6.50
2022-09-05T20:54:41.279Z,6.90
2022-09-05T21:05:20.810Z,6.50
2022-09-05T21:15:52.908Z,7.20
2022-09-05T21:26:24.364Z,5.70
2022-09-05T21:36:49.907Z,5.40
2022-09-05T21:47:42.154Z,5.20
2022-09-05T21:59:20.519Z,5.50
2022-09-05T22:09:13.199Z,5.50
2022-09-05T22:19:38.734Z,5.70
2022-09-05T22:30:05.654Z,4.10
2022-09-05T22:40:31.505Z,5.50
2022-09-05T22:50:56.108Z,3.60
2022-09-05T23:01:20.919Z,3.00
2022-09-05T23:11:45.287Z,2.90
2022-09-05T23:22:09.764Z,2.50
2022-09-05T23:32:34.915Z,2.60
2022-09-05T23:43:00.613Z,2.60
2022-09-05T23:53:25.415Z,2.30
